Time,TemperatureF,DewpointF,PressureIn,WindDirection,WindDirectionDegrees,WindSpeedMPH,WindSpeedGustMPH,Humidity,HourlyPrecipIn,Conditions,Clouds,dailyrainin,SoftwareType,DateUTC
2013-03-27 00:00:00,39.0,25.0,29.83,North,3,2.0,8.0,57,-99.99,,,-99.99,,2013-03-27 04:00:00,
2013-03-27 00:23:00,39.0,25.0,29.83,North,3,2.0,8.0,57,-99.99,,,-99.99,,2013-03-27 04:23:00,
2013-03-27 00:33:00,39.0,25.0,29.83,North,3,2.0,8.0,57,-99.99,,,-99.99,,2013-03-27 04:33:00,
2013-03-27 00:43:00,39.0,25.0,29.83,North,3,2.0,8.0,57,-99.99,,,-99.99,,2013-03-27 04:43:00,
2013-03-27 00:53:00,39.0,25.0,29.83,North,3,2.0,8.0,57,-99.99,,,-99.99,,2013-03-27 04:53:00,
2013-03-27 01:00:00,34.0,24.0,29.85,ENE,65,0.0,4.0,67,-99.99,,,-99.99,,2013-03-27 05:00:00,
2013-03-27 01:23:00,34.0,24.0,29.85,ENE,65,0.0,4.0,67,-99.99,,,-99.99,,2013-03-27 05:23:00,
2013-03-27 01:33:00,34.0,24.0,29.85,ENE,65,0.0,4.0,67,-99.99,,,-99.99,,2013-03-27 05:33:00,
2013-03-27 01:42:00,34.0,24.0,29.85,ENE,65,0.0,4.0,67,-99.99,,,-99.99,,2013-03-27 05:42:00,
2013-03-27 01:53:00,34.0,24.0,29.85,ENE,65,0.0,4.0,67,-99.99,,,-99.99,,2013-03-27 05:53:00,
2013-03-27 02:00:00,33.0,25.0,29.85,ENE,76,0.0,4.0,73,-99.99,,,-99.99,,2013-03-27 06:00:00,
2013-03-27 02:23:00,33.0,25.0,29.85,ENE,76,0.0,4.0,73,-99.99,,,-99.99,,2013-03-27 06:23:00,
2013-03-27 02:32:00,33.0,25.0,29.85,ENE,76,0.0,4.0,73,-99.99,,,-99.99,,2013-03-27 06:32:00,
2013-03-27 02:42:00,33.0,25.0,29.85,ENE,76,0.0,4.0,73,-99.99,,,-99.99,,2013-03-27 06:42:00,
2013-03-27 02:53:00,33.0,25.0,29.85,ENE,76,0.0,4.0,73,-99.99,,,-99.99,,2013-03-27 06:53:00,
2013-03-27 03:00:00,38.0,22.0,29.83,North,350,4.0,10.0,52,-99.99,,,-99.99,,2013-03-27 07:00:00,
2013-03-27 03:22:00,38.0,22.0,29.83,North,350,4.0,10.0,52,-99.99,,,-99.99,,2013-03-27 07:22:00,
2013-03-27 03:32:00,38.0,22.0,29.83,North,350,4.0,10.0,52,-99.99,,,-99.99,,2013-03-27 07:32:00,
2013-03-27 03:43:00,38.0,22.0,29.83,North,350,4.0,10.0,52,-99.99,,,-99.99,,2013-03-27 07:43:00,
2013-03-27 03:54:00,38.0,22.0,29.83,North,350,4.0,10.0,52,-99.99,,,-99.99,,2013-03-27 07:54:00,
2013-03-27 04:00:00,37.0,22.0,29.83,NNE,32,0.0,9.0,53,-99.99,,,-99.99,,2013-03-27 08:00:00,
2013-03-27 04:22:00,37.0,22.0,29.83,NNE,32,0.0,9.0,53,-99.99,,,-99.99,,2013-03-27 08:22:00,
2013-03-27 04:32:00,37.0,22.0,29.83,NNE,32,0.0,9.0,53,-99.99,,,-99.99,,2013-03-27 08:32:00,
2013-03-27 04:43:00,37.0,22.0,29.83,NNE,32,0.0,9.0,53,-99.99,,,-99.99,,2013-03-27 08:43:00,
2013-03-27 04:52:00,37.0,22.0,29.83,NNE,32,0.0,9.0,53,-99.99,,,-99.99,,2013-03-27 08:52:00,
2013-03-27 05:00:00,33.0,22.0,29.85,WSW,257,0.0,4.0,64,-99.99,,,-99.99,,2013-03-27 09:00:00,
2013-03-27 05:22:00,33.0,22.0,29.85,WSW,257,0.0,4.0,64,-99.99,,,-99.99,,2013-03-27 09:22:00,
2013-03-27 05:33:00,33.0,22.0,29.85,WSW,257,0.0,4.0,64,-99.99,,,-99.99,,2013-03-27 09:33:00,
2013-03-27 05:42:00,33.0,22.0,29.85,WSW,257,0.0,4.0,64,-99.99,,,-99.99,,2013-03-27 09:42:00,
2013-03-27 05:52:00,33.0,22.0,29.85,WSW,257,0.0,4.0,64,-99.99,,,-99.99,,2013-03-27 09:52:00,
2013-03-27 06:00:00,36.0,22.0,29.85,WNW,290,5.0,8.0,56,-99.99,,,-99.99,,2013-03-27 10:00:00,
2013-03-27 06:23:00,36.0,22.0,29.85,WNW,290,5.0,8.0,56,-99.99,,,-99.99,,2013-03-27 10:23:00,
2013-03-27 06:32:00,36.0,22.0,29.85,WNW,290,5.0,8.0,56,-99.99,,,-99.99,,2013-03-27 10:32:00,
2013-03-27 06:42:00,36.0,22.0,29.85,WNW,290,5.0,8.0,56,-99.99,,,-99.99,,2013-03-27 10:42:00,
2013-03-27 06:53:00,36.0,22.0,29.85,WNW,290,5.0,8.0,56,-99.99,,,-99.99,,2013-03-27 10:53:00,
2013-03-27 07:00:00,32.0,22.0,29.88,SE,135,0.0,7.0,67,-99.99,,,-99.99,,2013-03-27 11:00:00,
2013-03-27 07:22:00,32.0,22.0,29.88,SE,135,0.0,7.0,67,-99.99,,,-99.99,,2013-03-27 11:22:00,
2013-03-27 07:32:00,32.0,22.0,29.88,SE,135,0.0,7.0,67,-99.99,,,-99.99,,2013-03-27 11:32:00,
2013-03-27 07:42:00,32.0,22.0,29.88,SE,135,0.0,7.0,67,-99.99,,,-99.99,,2013-03-27 11:42:00,
2013-03-27 07:53:00,32.0,22.0,29.88,SE,135,0.0,7.0,67,-99.99,,,-99.99,,2013-03-27 11:53:00,
2013-03-27 08:00:00,38.0,24.0,29.88,North,352,0.0,4.0,57,-99.99,,,-99.99,,2013-03-27 12:00:00,
2013-03-27 08:32:00,38.0,24.0,29.88,North,352,0.0,4.0,57,-99.99,,,-99.99,,2013-03-27 12:32:00,
2013-03-27 08:43:00,38.0,24.0,29.88,North,352,0.0,4.0,57,-99.99,,,-99.99,,2013-03-27 12:43:00,
2013-03-27 08:52:00,38.0,24.0,29.88,North,352,0.0,4.0,57,-99.99,,,-99.99,,2013-03-27 12:52:00,
2013-03-27 09:00:00,42.0,26.0,29.88,NW,325,4.0,12.0,54,-99.99,,,-99.99,,2013-03-27 13:00:00,
2013-03-27 09:23:00,42.0,26.0,29.88,NW,325,4.0,12.0,54,-99.99,,,-99.99,,2013-03-27 13:23:00,
2013-03-27 09:33:00,42.0,26.0,29.88,NW,325,4.0,12.0,54,-99.99,,,-99.99,,2013-03-27 13:33:00,
2013-03-27 09:42:00,42.0,26.0,29.88,NW,325,4.0,12.0,54,-99.99,,,-99.99,,2013-03-27 13:42:00,
2013-03-27 09:53:00,42.0,26.0,29.88,NW,325,4.0,12.0,54,-99.99,,,-99.99,,2013-03-27 13:53:00,
2013-03-27 10:00:00,44.0,26.0,29.88,NW,306,11.0,16.0,48,-99.99,,,-99.99,,2013-03-27 14:00:00,
2013-03-27 10:22:00,44.0,26.0,29.88,NW,306,11.0,16.0,48,-99.99,,,-99.99,,2013-03-27 14:22:00,
2013-03-27 10:32:00,44.0,26.0,29.88,NW,306,11.0,16.0,48,-99.99,,,-99.99,,2013-03-27 14:32:00,
2013-03-27 10:42:00,44.0,26.0,29.88,NW,306,11.0,16.0,48,-99.99,,,-99.99,,2013-03-27 14:42:00,
2013-03-27 10:52:00,44.0,26.0,29.88,NW,306,11.0,16.0,48,-99.99,,,-99.99,,2013-03-27 14:52:00,
2013-03-27 11:00:00,47.0,26.0,29.88,NW,324,7.0,15.0,45,-99.99,,,-99.99,,2013-03-27 15:00:00,
2013-03-27 11:23:00,47.0,26.0,29.88,NW,324,7.0,15.0,45,-99.99,,,-99.99,,2013-03-27 15:23:00,
2013-03-27 11:33:00,47.0,26.0,29.88,NW,324,7.0,15.0,45,-99.99,,,-99.99,,2013-03-27 15:33:00,
2013-03-27 11:43:00,47.0,26.0,29.88,NW,324,7.0,15.0,45,-99.99,,,-99.99,,2013-03-27 15:43:00,
2013-03-27 11:53:00,47.0,26.0,29.88,NW,324,7.0,15.0,45,-99.99,,,-99.99,,2013-03-27 15:53:00,
2013-03-27 12:00:00,49.0,25.0,29.88,NW,319,9.0,22.0,39,-99.99,,,-99.99,,2013-03-27 16:00:00,
2013-03-27 12:23:00,49.0,25.0,29.88,NW,319,9.0,22.0,39,-99.99,,,-99.99,,2013-03-27 16:23:00,
2013-03-27 12:33:00,49.0,25.0,29.88,NW,319,9.0,22.0,39,-99.99,,,-99.99,,2013-03-27 16:33:00,
2013-03-27 12:42:00,49.0,25.0,29.88,NW,319,9.0,22.0,39,-99.99,,,-99.99,,2013-03-27 16:42:00,
2013-03-27 12:52:00,49.0,25.0,29.88,NW,319,9.0,22.0,39,-99.99,,,-99.99,,2013-03-27 16:52:00,
2013-03-27 13:00:00,51.0,20.0,29.85,NNW,335,9.0,17.0,29,-99.99,,,-99.99,,2013-03-27 17:00:00,
2013-03-27 13:22:00,51.0,20.0,29.85,NNW,335,9.0,17.0,29,-99.99,,,-99.99,,2013-03-27 17:22:00,
2013-03-27 13:33:00,51.0,20.0,29.85,NNW,335,9.0,17.0,29,-99.99,,,-99.99,,2013-03-27 17:33:00,
2013-03-27 13:44:00,51.0,20.0,29.85,NNW,335,9.0,17.0,29,-99.99,,,-99.99,,2013-03-27 17:44:00,
2013-03-27 13:52:00,51.0,20.0,29.85,NNW,335,9.0,17.0,29,-99.99,,,-99.99,,2013-03-27 17:52:00,
2013-03-27 14:00:00,49.0,19.0,29.85,WNW,295,4.0,17.0,29,-99.99,,,-99.99,,2013-03-27 18:00:00,
2013-03-27 14:23:00,49.0,19.0,29.85,WNW,295,4.0,17.0,29,-99.99,,,-99.99,,2013-03-27 18:23:00,
2013-03-27 14:33:00,49.0,19.0,29.85,WNW,295,4.0,17.0,29,-99.99,,,-99.99,,2013-03-27 18:33:00,
2013-03-27 14:42:00,49.0,19.0,29.85,WNW,295,4.0,17.0,29,-99.99,,,-99.99,,2013-03-27 18:42:00,
2013-03-27 14:53:00,49.0,19.0,29.85,WNW,295,4.0,17.0,29,-99.99,,,-99.99,,2013-03-27 18:53:00,
2013-03-27 17:00:00,49.0,22.0,29.85,West,266,5.0,19.0,35,-99.99,,,-99.99,,2013-03-27 21:00:00,
2013-03-27 17:23:00,49.0,22.0,29.85,West,266,5.0,19.0,35,-99.99,,,-99.99,,2013-03-27 21:23:00,
2013-03-27 17:32:00,49.0,22.0,29.85,West,266,5.0,19.0,35,-99.99,,,-99.99,,2013-03-27 21:32:00,
2013-03-27 17:44:00,49.0,22.0,29.85,West,266,5.0,19.0,35,-99.99,,,-99.99,,2013-03-27 21:44:00,
2013-03-27 17:52:00,49.0,22.0,29.85,West,266,5.0,19.0,35,-99.99,,,-99.99,,2013-03-27 21:52:00,
2013-03-27 18:00:00,50.0,20.0,29.85,NW,317,13.0,22.0,29,-99.99,,,-99.99,,2013-03-27 22:00:00,
2013-03-27 18:23:00,50.0,20.0,29.85,NW,317,13.0,22.0,29,-99.99,,,-99.99,,2013-03-27 22:23:00,
2013-03-27 18:33:00,50.0,20.0,29.85,NW,317,13.0,22.0,29,-99.99,,,-99.99,,2013-03-27 22:33:00,
2013-03-27 18:42:00,50.0,20.0,29.85,NW,317,13.0,22.0,29,-99.99,,,-99.99,,2013-03-27 22:42:00,
2013-03-27 18:53:00,50.0,20.0,29.85,NW,317,13.0,22.0,29,-99.99,,,-99.99,,2013-03-27 22:53:00,
2013-03-27 19:00:00,48.0,21.0,29.88,WNW,300,4.0,20.0,34,-99.99,,,-99.99,,2013-03-27 23:00:00,
2013-03-27 19:22:00,48.0,21.0,29.88,WNW,300,4.0,20.0,34,-99.99,,,-99.99,,2013-03-27 23:22:00,
2013-03-27 19:32:00,48.0,21.0,29.88,WNW,300,4.0,20.0,34,-99.99,,,-99.99,,2013-03-27 23:32:00,
2013-03-27 19:43:00,48.0,21.0,29.88,WNW,300,4.0,20.0,34,-99.99,,,-99.99,,2013-03-27 23:43:00,
2013-03-27 19:52:00,48.0,21.0,29.88,WNW,300,4.0,20.0,34,-99.99,,,-99.99,,2013-03-27 23:52:00,
2013-03-27 20:00:00,44.0,30.0,29.91,West,267,6.0,27.0,57,-99.99,,,-99.99,,2013-03-28 00:00:00,
2013-03-27 20:22:00,44.0,30.0,29.91,West,267,6.0,27.0,57,-99.99,,,-99.99,,2013-03-28 00:22:00,
2013-03-27 20:33:00,44.0,30.0,29.91,West,267,6.0,27.0,57,-99.99,,,-99.99,,2013-03-28 00:33:00,
2013-03-27 20:43:00,44.0,30.0,29.91,West,267,6.0,27.0,57,-99.99,,,-99.99,,2013-03-28 00:43:00,
2013-03-27 20:52:00,44.0,30.0,29.91,West,267,6.0,27.0,57,-99.99,,,-99.99,,2013-03-28 00:52:00,
2013-03-27 21:00:00,42.0,29.0,29.94,NW,323,6.0,12.0,60,-99.99,,,-99.99,,2013-03-28 01:00:00,
2013-03-27 21:22:00,42.0,29.0,29.94,NW,323,6.0,12.0,60,-99.99,,,-99.99,,2013-03-28 01:22:00,
2013-03-27 21:32:00,42.0,29.0,29.94,NW,323,6.0,12.0,60,-99.99,,,-99.99,,2013-03-28 01:32:00,
2013-03-27 21:42:00,42.0,29.0,29.94,NW,323,6.0,12.0,60,-99.99,,,-99.99,,2013-03-28 01:42:00,
2013-03-27 21:53:00,42.0,29.0,29.94,NW,323,6.0,12.0,60,-99.99,,,-99.99,,2013-03-28 01:53:00,
2013-03-27 22:00:00,42.0,27.0,29.94,NW,319,3.0,12.0,56,-99.99,,,-99.99,,2013-03-28 02:00:00,
2013-03-27 22:22:00,42.0,27.0,29.94,NW,319,3.0,12.0,56,-99.99,,,-99.99,,2013-03-28 02:22:00,
2013-03-27 22:33:00,42.0,27.0,29.94,NW,319,3.0,12.0,56,-99.99,,,-99.99,,2013-03-28 02:33:00,
2013-03-27 22:42:00,42.0,27.0,29.94,NW,319,3.0,12.0,56,-99.99,,,-99.99,,2013-03-28 02:42:00,
2013-03-27 22:52:00,42.0,27.0,29.94,NW,319,3.0,12.0,56,-99.99,,,-99.99,,2013-03-28 02:52:00,
2013-03-27 23:00:00,41.0,28.0,29.94,NW,305,6.0,11.0,58,-99.99,,,-99.99,,2013-03-28 03:00:00,
2013-03-27 23:22:00,41.0,28.0,29.94,NW,305,6.0,11.0,58,-99.99,,,-99.99,,2013-03-28 03:22:00,
2013-03-27 23:33:00,41.0,28.0,29.94,NW,305,6.0,11.0,58,-99.99,,,-99.99,,2013-03-28 03:33:00,
2013-03-27 23:43:00,41.0,28.0,29.94,NW,305,6.0,11.0,58,-99.99,,,-99.99,,2013-03-28 03:43:00,
2013-03-27 23:53:00,41.0,28.0,29.94,NW,305,6.0,11.0,58,-99.99,,,-99.99,,2013-03-28 03:53:00,